sensor_id;sensor_type;location;lat;lon;timestamp;temperature;humidity
70456;DHT22;57916;51.996;5.180;2022-10-18T02:01:30;19.00;70.30
70456;DHT22;57916;51.996;5.180;2022-10-18T02:04:06;18.90;70.00
70456;DHT22;57916;51.996;5.180;2022-10-18T02:06:41;18.90;70.00
70456;DHT22;57916;51.996;5.180;2022-10-18T02:09:22;18.90;70.00
70456;DHT22;57916;51.996;5.180;2022-10-18T02:11:54;18.90;69.90
70456;DHT22;57916;51.996;5.180;2022-10-18T02:14:24;18.90;69.90
70456;DHT22;57916;51.996;5.180;2022-10-18T02:16:54;18.90;69.90
70456;DHT22;57916;51.996;5.180;2022-10-18T02:19:34;18.80;69.70
70456;DHT22;57916;51.996;5.180;2022-10-18T02:22:04;18.80;69.70
70456;DHT22;57916;51.996;5.180;2022-10-18T02:24:48;18.80;69.50
70456;DHT22;57916;51.996;5.180;2022-10-18T02:27:17;18.80;69.30
70456;DHT22;57916;51.996;5.180;2022-10-18T02:29:44;18.80;69.30
70456;DHT22;57916;51.996;5.180;2022-10-18T02:34:49;18.70;69.30
70456;DHT22;57916;51.996;5.180;2022-10-18T02:37:17;18.70;69.30
70456;DHT22;57916;51.996;5.180;2022-10-18T02:39:49;18.60;69.20
70456;DHT22;57916;51.996;5.180;2022-10-18T02:42:17;18.60;69.10
70456;DHT22;57916;51.996;5.180;2022-10-18T02:44:43;18.50;69.10
70456;DHT22;57916;51.996;5.180;2022-10-18T02:47:11;18.50;68.90
70456;DHT22;57916;51.996;5.180;2022-10-18T02:49:38;18.40;68.80
70456;DHT22;57916;51.996;5.180;2022-10-18T02:52:05;18.40;68.70
70456;DHT22;57916;51.996;5.180;2022-10-18T02:54:32;18.40;68.70
70456;DHT22;57916;51.996;5.180;2022-10-18T02:56:59;18.40;68.70
70456;DHT22;57916;51.996;5.180;2022-10-18T02:59:26;18.30;68.90
70456;DHT22;57916;51.996;5.180;2022-10-18T03:01:53;18.30;68.80
70456;DHT22;57916;51.996;5.180;2022-10-18T03:04:20;18.30;68.70
70456;DHT22;57916;51.996;5.180;2022-10-18T03:06:47;18.30;68.70
70456;DHT22;57916;51.996;5.180;2022-10-18T03:09:14;18.20;68.80
70456;DHT22;57916;51.996;5.180;2022-10-18T03:11:41;18.20;69.80
70456;DHT22;57916;51.996;5.180;2022-10-18T03:14:08;18.20;68.80
70456;DHT22;57916;51.996;5.180;2022-10-18T03:16:35;18.20;68.70
70456;DHT22;57916;51.996;5.180;2022-10-18T03:19:02;18.20;68.80
70456;DHT22;57916;51.996;5.180;2022-10-18T03:21:29;18.10;69.00
70456;DHT22;57916;51.996;5.180;2022-10-18T03:23:56;18.10;69.20
70456;DHT22;57916;51.996;5.180;2022-10-18T03:26:24;18.10;69.20
70456;DHT22;57916;51.996;5.180;2022-10-18T03:28:51;18.10;69.30
70456;DHT22;57916;51.996;5.180;2022-10-18T03:31:18;18.10;69.10
70456;DHT22;57916;51.996;5.180;2022-10-18T03:33:45;18.10;69.00
70456;DHT22;57916;51.996;5.180;2022-10-18T03:36:12;18.10;69.00
70456;DHT22;57916;51.996;5.180;2022-10-18T03:38:39;18.10;69.10
70456;DHT22;57916;51.996;5.180;2022-10-18T03:41:06;18.00;68.80
70456;DHT22;57916;51.996;5.180;2022-10-18T03:43:33;18.00;68.80
70456;DHT22;57916;51.996;5.180;2022-10-18T03:46:00;18.00;68.80
70456;DHT22;57916;51.996;5.180;2022-10-18T03:48:27;18.00;68.70
70456;DHT22;57916;51.996;5.180;2022-10-18T03:50:54;18.00;68.70
70456;DHT22;57916;51.996;5.180;2022-10-18T03:53:21;18.00;68.80
70456;DHT22;57916;51.996;5.180;2022-10-18T03:55:52;18.00;68.80
70456;DHT22;57916;51.996;5.180;2022-10-18T03:58:19;17.90;68.60
70456;DHT22;57916;51.996;5.180;2022-10-18T04:00:53;17.90;68.80
70456;DHT22;57916;51.996;5.180;2022-10-18T04:03:21;17.90;68.60
70456;DHT22;57916;51.996;5.180;2022-10-18T04:05:49;17.90;68.70
70456;DHT22;57916;51.996;5.180;2022-10-18T04:08:16;17.90;68.60
70456;DHT22;57916;51.996;5.180;2022-10-18T04:10:44;17.80;68.50
70456;DHT22;57916;51.996;5.180;2022-10-18T04:13:11;17.80;68.60
70456;DHT22;57916;51.996;5.180;2022-10-18T04:15:38;17.80;68.50
70456;DHT22;57916;51.996;5.180;2022-10-18T04:18:05;17.80;68.40
70456;DHT22;57916;51.996;5.180;2022-10-18T04:20:32;17.80;68.50
70456;DHT22;57916;51.996;5.180;2022-10-18T04:22:59;17.80;68.20
70456;DHT22;57916;51.996;5.180;2022-10-18T04:25:26;17.70;68.20
70456;DHT22;57916;51.996;5.180;2022-10-18T04:27:54;17.70;68.30
70456;DHT22;57916;51.996;5.180;2022-10-18T04:30:21;17.70;68.40
70456;DHT22;57916;51.996;5.180;2022-10-18T04:32:48;17.70;68.70
70456;DHT22;57916;51.996;5.180;2022-10-18T04:35:15;17.60;68.40
70456;DHT22;57916;51.996;5.180;2022-10-18T04:37:42;17.60;68.60
70456;DHT22;57916;51.996;5.180;2022-10-18T04:40:09;17.60;68.60
70456;DHT22;57916;51.996;5.180;2022-10-18T04:42:36;17.60;68.70
70456;DHT22;57916;51.996;5.180;2022-10-18T04:45:03;17.60;68.70
70456;DHT22;57916;51.996;5.180;2022-10-18T04:47:30;17.60;68.60
70456;DHT22;57916;51.996;5.180;2022-10-18T04:49:58;17.50;68.60
70456;DHT22;57916;51.996;5.180;2022-10-18T04:52:25;17.60;68.70
70456;DHT22;57916;51.996;5.180;2022-10-18T04:54:51;17.50;68.80
70456;DHT22;57916;51.996;5.180;2022-10-18T04:57:18;17.60;68.80
70456;DHT22;57916;51.996;5.180;2022-10-18T04:59:45;17.50;68.90
70456;DHT22;57916;51.996;5.180;2022-10-18T05:02:12;17.50;68.80
70456;DHT22;57916;51.996;5.180;2022-10-18T05:04:39;17.50;68.60
70456;DHT22;57916;51.996;5.180;2022-10-18T05:07:06;17.50;68.60
70456;DHT22;57916;51.996;5.180;2022-10-18T05:09:33;17.50;68.30
70456;DHT22;57916;51.996;5.180;2022-10-18T05:12:00;17.50;68.50
70456;DHT22;57916;51.996;5.180;2022-10-18T05:14:27;17.40;68.50
70456;DHT22;57916;51.996;5.180;2022-10-18T05:16:53;17.40;68.50
70456;DHT22;57916;51.996;5.180;2022-10-18T05:19:20;17.40;68.40
70456;DHT22;57916;51.996;5.180;2022-10-18T05:21:47;17.40;68.20
70456;DHT22;57916;51.996;5.180;2022-10-18T05:24:14;17.40;69.30
70456;DHT22;57916;51.996;5.180;2022-10-18T05:26:41;17.40;68.70
70456;DHT22;57916;51.996;5.180;2022-10-18T05:29:08;17.30;68.40
70456;DHT22;57916;51.996;5.180;2022-10-18T05:31:35;17.30;68.40
70456;DHT22;57916;51.996;5.180;2022-10-18T05:34:02;17.30;68.60
70456;DHT22;57916;51.996;5.180;2022-10-18T05:36:29;17.30;68.80
70456;DHT22;57916;51.996;5.180;2022-10-18T05:38:56;17.30;68.80
70456;DHT22;57916;51.996;5.180;2022-10-18T05:41:29;17.30;68.80
70456;DHT22;57916;51.996;5.180;2022-10-18T05:43:56;17.30;68.70
70456;DHT22;57916;51.996;5.180;2022-10-18T05:46:23;17.30;68.60
70456;DHT22;57916;51.996;5.180;2022-10-18T05:48:51;17.30;68.60
70456;DHT22;57916;51.996;5.180;2022-10-18T05:51:18;17.30;68.50
70456;DHT22;57916;51.996;5.180;2022-10-18T05:53:45;17.20;69.10
70456;DHT22;57916;51.996;5.180;2022-10-18T05:56:12;17.30;68.70
70456;DHT22;57916;51.996;5.180;2022-10-18T05:58:40;17.20;68.70
70456;DHT22;57916;51.996;5.180;2022-10-18T06:01:09;17.30;69.00
70456;DHT22;57916;51.996;5.180;2022-10-18T06:03:36;17.20;68.90
70456;DHT22;57916;51.996;5.180;2022-10-18T06:06:08;17.20;68.90
70456;DHT22;57916;51.996;5.180;2022-10-18T06:08:36;17.20;69.10
70456;DHT22;57916;51.996;5.180;2022-10-18T06:11:07;17.20;69.20
70456;DHT22;57916;51.996;5.180;2022-10-18T06:13:39;17.20;70.20
70456;DHT22;57916;51.996;5.180;2022-10-18T06:16:06;17.20;69.10
70456;DHT22;57916;51.996;5.180;2022-10-18T06:18:33;17.10;69.10
70456;DHT22;57916;51.996;5.180;2022-10-18T06:21:00;17.10;69.00
70456;DHT22;57916;51.996;5.180;2022-10-18T06:23:27;17.10;69.10
70456;DHT22;57916;51.996;5.180;2022-10-18T06:26:06;17.10;69.40
70456;DHT22;57916;51.996;5.180;2022-10-18T06:28:34;17.00;69.50
70456;DHT22;57916;51.996;5.180;2022-10-18T06:31:03;17.00;69.50
70456;DHT22;57916;51.996;5.180;2022-10-18T06:33:31;17.00;69.50
70456;DHT22;57916;51.996;5.180;2022-10-18T06:36:00;17.00;69.40
70456;DHT22;57916;51.996;5.180;2022-10-18T06:38:28;17.00;69.40
70456;DHT22;57916;51.996;5.180;2022-10-18T06:40:56;17.00;69.40
70456;DHT22;57916;51.996;5.180;2022-10-18T06:43:24;16.90;69.30
70456;DHT22;57916;51.996;5.180;2022-10-18T06:45:52;16.90;69.50
70456;DHT22;57916;51.996;5.180;2022-10-18T06:48:20;16.90;69.50
70456;DHT22;57916;51.996;5.180;2022-10-18T06:50:56;16.90;69.50
70456;DHT22;57916;51.996;5.180;2022-10-18T06:53:27;16.90;69.70
70456;DHT22;57916;51.996;5.180;2022-10-18T06:55:59;16.90;69.90
70456;DHT22;57916;51.996;5.180;2022-10-18T06:58:28;16.90;70.20
70456;DHT22;57916;51.996;5.180;2022-10-18T07:00:55;16.90;71.40
70456;DHT22;57916;51.996;5.180;2022-10-18T07:03:22;16.90;70.50
70456;DHT22;57916;51.996;5.180;2022-10-18T07:05:50;17.00;70.40
70456;DHT22;57916;51.996;5.180;2022-10-18T07:08:17;17.00;70.50
70456;DHT22;57916;51.996;5.180;2022-10-18T07:10:53;17.10;70.50
70456;DHT22;57916;51.996;5.180;2022-10-18T07:13:20;17.10;70.30
70456;DHT22;57916;51.996;5.180;2022-10-18T07:16:05;17.20;70.20
70456;DHT22;57916;51.996;5.180;2022-10-18T07:18:38;17.20;70.30
70456;DHT22;57916;51.996;5.180;2022-10-18T07:21:10;17.30;70.20
70456;DHT22;57916;51.996;5.180;2022-10-18T07:23:40;17.30;70.10
70456;DHT22;57916;51.996;5.180;2022-10-18T07:26:31;17.40;69.90
70456;DHT22;57916;51.996;5.180;2022-10-18T07:29:04;17.40;70.20
70456;DHT22;57916;51.996;5.180;2022-10-18T07:31:32;17.50;69.90
70456;DHT22;57916;51.996;5.180;2022-10-18T07:33:59;17.60;69.90
70456;DHT22;57916;51.996;5.180;2022-10-18T07:36:26;17.60;70.00
70456;DHT22;57916;51.996;5.180;2022-10-18T07:38:53;17.70;70.00
70456;DHT22;57916;51.996;5.180;2022-10-18T07:41:20;17.80;71.10
70456;DHT22;57916;51.996;5.180;2022-10-18T07:43:49;17.90;69.70
70456;DHT22;57916;51.996;5.180;2022-10-18T07:46:17;18.00;69.50
70456;DHT22;57916;51.996;5.180;2022-10-18T07:48:45;18.00;69.10
70456;DHT22;57916;51.996;5.180;2022-10-18T07:51:12;18.10;69.00
70456;DHT22;57916;51.996;5.180;2022-10-18T07:53:40;18.10;69.30
70456;DHT22;57916;51.996;5.180;2022-10-18T07:56:10;18.20;69.30
70456;DHT22;57916;51.996;5.180;2022-10-18T07:58:46;18.30;68.60
70456;DHT22;57916;51.996;5.180;2022-10-18T08:01:14;18.30;68.90
70456;DHT22;57916;51.996;5.180;2022-10-18T08:03:41;18.40;69.20
70456;DHT22;57916;51.996;5.180;2022-10-18T08:06:11;18.40;68.80
70456;DHT22;57916;51.996;5.180;2022-10-18T08:08:39;18.50;69.00
70456;DHT22;57916;51.996;5.180;2022-10-18T08:11:12;18.60;68.50
70456;DHT22;57916;51.996;5.180;2022-10-18T08:13:41;18.70;68.20
70456;DHT22;57916;51.996;5.180;2022-10-18T08:16:10;18.70;68.30
70456;DHT22;57916;51.996;5.180;2022-10-18T08:18:38;18.80;68.60
70456;DHT22;57916;51.996;5.180;2022-10-18T08:21:11;18.90;68.30
70456;DHT22;57916;51.996;5.180;2022-10-18T08:23:38;19.00;67.60
70456;DHT22;57916;51.996;5.180;2022-10-18T08:26:08;19.00;67.80
70456;DHT22;57916;51.996;5.180;2022-10-18T08:28:35;19.10;68.30
70456;DHT22;57916;51.996;5.180;2022-10-18T08:31:04;19.20;68.70
70456;DHT22;57916;51.996;5.180;2022-10-18T08:33:32;19.30;68.80
70456;DHT22;57916;51.996;5.180;2022-10-18T08:36:03;19.30;69.10
70456;DHT22;57916;51.996;5.180;2022-10-18T08:38:35;19.40;69.20
70456;DHT22;57916;51.996;5.180;2022-10-18T08:47:05;19.70;67.80
70456;DHT22;57916;51.996;5.180;2022-10-18T08:49:38;19.80;67.40
70456;DHT22;57916;51.996;5.180;2022-10-18T08:58:21;20.10;67.50
70456;DHT22;57916;51.996;5.180;2022-10-18T09:14:09;21.40;65.20
70456;DHT22;57916;51.996;5.180;2022-10-18T09:17:03;21.50;64.80
70456;DHT22;57916;51.996;5.180;2022-10-18T09:19:58;21.70;63.80
70456;DHT22;57916;51.996;5.180;2022-10-18T09:22:55;21.90;63.40
70456;DHT22;57916;51.996;5.180;2022-10-18T09:27:55;22.40;62.80
70456;DHT22;57916;51.996;5.180;2022-10-18T09:30:42;22.70;62.10
70456;DHT22;57916;51.996;5.180;2022-10-18T09:35:57;23.10;59.70
70456;DHT22;57916;51.996;5.180;2022-10-18T09:38:27;23.30;60.20
70456;DHT22;57916;51.996;5.180;2022-10-18T09:41:01;23.40;58.40
70456;DHT22;57916;51.996;5.180;2022-10-18T09:46:20;23.70;58.30
70456;DHT22;57916;51.996;5.180;2022-10-18T09:48:55;23.90;59.50
70456;DHT22;57916;51.996;5.180;2022-10-18T09:51:26;24.00;57.80
70456;DHT22;57916;51.996;5.180;2022-10-18T09:59:40;24.40;58.50
70456;DHT22;57916;51.996;5.180;2022-10-18T10:02:13;24.60;56.90
70456;DHT22;57916;51.996;5.180;2022-10-18T10:04:41;24.80;57.20
70456;DHT22;57916;51.996;5.180;2022-10-18T10:07:12;24.90;56.10
70456;DHT22;57916;51.996;5.180;2022-10-18T10:09:49;25.00;55.70
70456;DHT22;57916;51.996;5.180;2022-10-18T10:12:28;25.10;55.50
70456;DHT22;57916;51.996;5.180;2022-10-18T10:17:38;24.90;52.50
70456;DHT22;57916;51.996;5.180;2022-10-18T10:20:21;24.80;54.40
70456;DHT22;57916;51.996;5.180;2022-10-18T10:22:49;24.60;51.80
70456;DHT22;57916;51.996;5.180;2022-10-18T10:25:34;24.50;52.50
70456;DHT22;57916;51.996;5.180;2022-10-18T10:28:13;24.20;51.80
70456;DHT22;57916;51.996;5.180;2022-10-18T10:30:42;24.10;52.40
70456;DHT22;57916;51.996;5.180;2022-10-18T10:36:00;23.70;54.90
70456;DHT22;57916;51.996;5.180;2022-10-18T10:38:29;23.50;56.40
70456;DHT22;57916;51.996;5.180;2022-10-18T10:40:57;23.50;55.60
70456;DHT22;57916;51.996;5.180;2022-10-18T10:43:35;23.50;56.70
70456;DHT22;57916;51.996;5.180;2022-10-18T10:46:13;23.60;54.50
70456;DHT22;57916;51.996;5.180;2022-10-18T10:48:53;23.60;52.00
70456;DHT22;57916;51.996;5.180;2022-10-18T10:51:41;23.50;50.90
70456;DHT22;57916;51.996;5.180;2022-10-18T10:54:16;23.40;51.20
70456;DHT22;57916;51.996;5.180;2022-10-18T10:59:22;23.10;50.60
70456;DHT22;57916;51.996;5.180;2022-10-18T11:02:15;23.10;50.80
70456;DHT22;57916;51.996;5.180;2022-10-18T11:04:50;22.90;51.40
70456;DHT22;57916;51.996;5.180;2022-10-18T11:07:29;22.80;50.60
70456;DHT22;57916;51.996;5.180;2022-10-18T11:10:14;22.70;50.40
70456;DHT22;57916;51.996;5.180;2022-10-18T11:12:44;22.50;51.30
70456;DHT22;57916;51.996;5.180;2022-10-18T11:15:27;22.40;52.30
70456;DHT22;57916;51.996;5.180;2022-10-18T11:18:32;22.40;52.00
70456;DHT22;57916;51.996;5.180;2022-10-18T11:23:39;22.30;51.90
70456;DHT22;57916;51.996;5.180;2022-10-18T11:31:38;22.10;53.70
70456;DHT22;57916;51.996;5.180;2022-10-18T11:37:23;22.00;54.20
70456;DHT22;57916;51.996;5.180;2022-10-18T11:42:55;21.90;52.30
70456;DHT22;57916;51.996;5.180;2022-10-18T11:45:57;21.90;53.00
70456;DHT22;57916;51.996;5.180;2022-10-18T12:05:25;21.80;55.00
70456;DHT22;57916;51.996;5.180;2022-10-18T12:08:02;21.80;54.60
70456;DHT22;57916;51.996;5.180;2022-10-18T12:10:32;21.80;54.80
70456;DHT22;57916;51.996;5.180;2022-10-18T12:13:28;21.80;54.60
70456;DHT22;57916;51.996;5.180;2022-10-18T12:15:58;21.80;54.40
70456;DHT22;57916;51.996;5.180;2022-10-18T12:18:26;21.80;52.70
70456;DHT22;57916;51.996;5.180;2022-10-18T12:20:57;21.80;52.50
70456;DHT22;57916;51.996;5.180;2022-10-18T12:23:33;21.80;52.80
70456;DHT22;57916;51.996;5.180;2022-10-18T12:26:04;21.70;52.60
70456;DHT22;57916;51.996;5.180;2022-10-18T12:31:44;21.70;50.80
70456;DHT22;57916;51.996;5.180;2022-10-18T12:42:32;21.70;52.70
70456;DHT22;57916;51.996;5.180;2022-10-18T12:45:30;21.60;51.90
70456;DHT22;57916;51.996;5.180;2022-10-18T12:48:06;21.70;51.60
70456;DHT22;57916;51.996;5.180;2022-10-18T12:50:41;21.60;50.90
70456;DHT22;57916;51.996;5.180;2022-10-18T12:58:30;21.60;51.60
70456;DHT22;57916;51.996;5.180;2022-10-18T13:00:59;21.60;52.40
70456;DHT22;57916;51.996;5.180;2022-10-18T13:03:52;21.60;53.40
70456;DHT22;57916;51.996;5.180;2022-10-18T13:06:20;21.60;51.50
70456;DHT22;57916;51.996;5.180;2022-10-18T13:08:47;21.50;50.80
70456;DHT22;57916;51.996;5.180;2022-10-18T13:11:34;21.50;51.80
70456;DHT22;57916;51.996;5.180;2022-10-18T13:14:29;21.50;53.20
70456;DHT22;57916;51.996;5.180;2022-10-18T13:19:56;21.50;54.90
70456;DHT22;57916;51.996;5.180;2022-10-18T13:30:22;21.50;53.50
70456;DHT22;57916;51.996;5.180;2022-10-18T13:35:54;21.60;53.90
70456;DHT22;57916;51.996;5.180;2022-10-18T13:43:56;21.50;52.50
70456;DHT22;57916;51.996;5.180;2022-10-18T13:56:17;21.50;52.50
70456;DHT22;57916;51.996;5.180;2022-10-18T14:06:37;21.40;52.00
70456;DHT22;57916;51.996;5.180;2022-10-18T14:09:27;21.40;52.60
70456;DHT22;57916;51.996;5.180;2022-10-18T14:12:27;21.30;52.60
70456;DHT22;57916;51.996;5.180;2022-10-18T14:15:12;21.30;51.90
70456;DHT22;57916;51.996;5.180;2022-10-18T14:17:49;21.30;51.10
70456;DHT22;57916;51.996;5.180;2022-10-18T14:25:38;21.20;50.70
70456;DHT22;57916;51.996;5.180;2022-10-18T14:28:26;21.20;51.60
70456;DHT22;57916;51.996;5.180;2022-10-18T14:31:14;21.20;52.00
70456;DHT22;57916;51.996;5.180;2022-10-18T14:33:52;21.10;51.80
70456;DHT22;57916;51.996;5.180;2022-10-18T14:36:26;21.10;52.10
70456;DHT22;57916;51.996;5.180;2022-10-18T14:41:34;21.10;50.60
70456;DHT22;57916;51.996;5.180;2022-10-18T14:44:25;21.10;51.40
70456;DHT22;57916;51.996;5.180;2022-10-18T14:47:12;21.10;51.00
70456;DHT22;57916;51.996;5.180;2022-10-18T14:49:44;21.00;51.70
70456;DHT22;57916;51.996;5.180;2022-10-18T14:52:17;21.00;52.20
70456;DHT22;57916;51.996;5.180;2022-10-18T14:54:46;21.00;52.80
70456;DHT22;57916;51.996;5.180;2022-10-18T14:57:35;21.00;52.00
70456;DHT22;57916;51.996;5.180;2022-10-18T15:00:19;21.00;50.80
70456;DHT22;57916;51.996;5.180;2022-10-18T15:02:48;21.00;51.10
70456;DHT22;57916;51.996;5.180;2022-10-18T15:07:42;20.90;51.50
70456;DHT22;57916;51.996;5.180;2022-10-18T15:10:15;20.90;52.20
70456;DHT22;57916;51.996;5.180;2022-10-18T15:12:43;20.90;53.00
70456;DHT22;57916;51.996;5.180;2022-10-18T15:15:32;20.80;51.90
70456;DHT22;57916;51.996;5.180;2022-10-18T15:17:59;20.80;53.10
70456;DHT22;57916;51.996;5.180;2022-10-18T15:20:29;20.80;53.40
70456;DHT22;57916;51.996;5.180;2022-10-18T15:23:20;20.80;52.90
70456;DHT22;57916;51.996;5.180;2022-10-18T15:25:48;20.80;53.60
70456;DHT22;57916;51.996;5.180;2022-10-18T15:28:41;20.80;54.20
70456;DHT22;57916;51.996;5.180;2022-10-18T15:31:22;20.70;54.50
70456;DHT22;57916;51.996;5.180;2022-10-18T15:33:49;20.70;55.10
70456;DHT22;57916;51.996;5.180;2022-10-18T15:36:28;20.70;54.50
70456;DHT22;57916;51.996;5.180;2022-10-18T15:39:07;20.70;53.00
70456;DHT22;57916;51.996;5.180;2022-10-18T15:41:45;20.60;54.20
70456;DHT22;57916;51.996;5.180;2022-10-18T15:46:46;20.60;54.90
70456;DHT22;57916;51.996;5.180;2022-10-18T15:55:40;20.50;55.20
70456;DHT22;57916;51.996;5.180;2022-10-18T15:57:48;20.40;55.90
70456;DHT22;57916;51.996;5.180;2022-10-18T16:00:19;20.40;56.90
70456;DHT22;57916;51.996;5.180;2022-10-18T16:02:46;20.30;57.10
70456;DHT22;57916;51.996;5.180;2022-10-18T16:05:14;20.30;57.40
70456;DHT22;57916;51.996;5.180;2022-10-18T16:07:52;20.20;57.30
70456;DHT22;57916;51.996;5.180;2022-10-18T16:10:19;20.20;58.00
70456;DHT22;57916;51.996;5.180;2022-10-18T16:12:46;20.10;58.00
70456;DHT22;57916;51.996;5.180;2022-10-18T16:15:13;20.10;58.00
70456;DHT22;57916;51.996;5.180;2022-10-18T16:17:40;20.10;57.90
70456;DHT22;57916;51.996;5.180;2022-10-18T16:20:23;20.00;58.40
70456;DHT22;57916;51.996;5.180;2022-10-18T16:22:50;20.00;57.30
70456;DHT22;57916;51.996;5.180;2022-10-18T16:25:17;19.90;57.30
70456;DHT22;57916;51.996;5.180;2022-10-18T16:27:44;19.80;57.60
70456;DHT22;57916;51.996;5.180;2022-10-18T16:30:14;19.70;57.80
70456;DHT22;57916;51.996;5.180;2022-10-18T16:32:41;19.70;58.20
70456;DHT22;57916;51.996;5.180;2022-10-18T16:35:09;19.60;58.30
70456;DHT22;57916;51.996;5.180;2022-10-18T16:37:38;19.60;58.60
70456;DHT22;57916;51.996;5.180;2022-10-18T16:40:25;19.60;58.80
70456;DHT22;57916;51.996;5.180;2022-10-18T16:42:52;19.50;58.70
70456;DHT22;57916;51.996;5.180;2022-10-18T16:45:19;19.50;59.00
70456;DHT22;57916;51.996;5.180;2022-10-18T16:47:46;19.40;59.30
70456;DHT22;57916;51.996;5.180;2022-10-18T16:50:16;19.30;59.40
70456;DHT22;57916;51.996;5.180;2022-10-18T16:52:43;19.30;59.50
70456;DHT22;57916;51.996;5.180;2022-10-18T16:55:10;19.20;59.70
70456;DHT22;57916;51.996;5.180;2022-10-18T16:57:42;19.20;60.00
70456;DHT22;57916;51.996;5.180;2022-10-18T17:00:15;19.10;60.00
70456;DHT22;57916;51.996;5.180;2022-10-18T17:02:43;19.10;60.10
70456;DHT22;57916;51.996;5.180;2022-10-18T17:05:10;19.00;60.30
70456;DHT22;57916;51.996;5.180;2022-10-18T17:07:37;19.00;60.30
70456;DHT22;57916;51.996;5.180;2022-10-18T17:10:05;18.90;60.20
70456;DHT22;57916;51.996;5.180;2022-10-18T17:12:32;18.80;60.20
70456;DHT22;57916;51.996;5.180;2022-10-18T17:14:59;18.80;60.50
70456;DHT22;57916;51.996;5.180;2022-10-18T17:17:26;18.70;60.50
70456;DHT22;57916;51.996;5.180;2022-10-18T17:19:53;18.60;60.50
70456;DHT22;57916;51.996;5.180;2022-10-18T17:22:20;18.60;60.80
70456;DHT22;57916;51.996;5.180;2022-10-18T17:24:48;18.50;60.80
70456;DHT22;57916;51.996;5.180;2022-10-18T17:27:15;18.50;60.90
70456;DHT22;57916;51.996;5.180;2022-10-18T17:29:43;18.50;61.10
70456;DHT22;57916;51.996;5.180;2022-10-18T17:32:10;18.40;61.20
70456;DHT22;57916;51.996;5.180;2022-10-18T17:34:37;18.30;61.20
70456;DHT22;57916;51.996;5.180;2022-10-18T17:37:04;18.30;61.40
70456;DHT22;57916;51.996;5.180;2022-10-18T17:39:31;18.30;61.60
70456;DHT22;57916;51.996;5.180;2022-10-18T17:41:58;18.20;61.50
70456;DHT22;57916;51.996;5.180;2022-10-18T17:44:25;18.10;61.70
70456;DHT22;57916;51.996;5.180;2022-10-18T17:46:52;18.10;61.80
70456;DHT22;57916;51.996;5.180;2022-10-18T17:49:19;18.10;61.90
70456;DHT22;57916;51.996;5.180;2022-10-18T17:51:47;18.00;61.80
70456;DHT22;57916;51.996;5.180;2022-10-18T17:54:14;18.00;61.80
70456;DHT22;57916;51.996;5.180;2022-10-18T17:56:41;18.00;61.90
70456;DHT22;57916;51.996;5.180;2022-10-18T17:59:08;17.90;62.00
70456;DHT22;57916;51.996;5.180;2022-10-18T18:01:35;17.90;62.00
70456;DHT22;57916;51.996;5.180;2022-10-18T18:04:02;17.80;62.00
70456;DHT22;57916;51.996;5.180;2022-10-18T18:06:32;17.80;61.90
70456;DHT22;57916;51.996;5.180;2022-10-18T18:09:02;17.70;61.90
70456;DHT22;57916;51.996;5.180;2022-10-18T18:11:30;17.70;61.70
70456;DHT22;57916;51.996;5.180;2022-10-18T18:13:58;17.70;61.70
70456;DHT22;57916;51.996;5.180;2022-10-18T18:16:27;17.60;61.80
70456;DHT22;57916;51.996;5.180;2022-10-18T18:18:56;17.60;61.90
70456;DHT22;57916;51.996;5.180;2022-10-18T18:21:26;17.50;62.00
70456;DHT22;57916;51.996;5.180;2022-10-18T18:23:56;17.50;62.20
70456;DHT22;57916;51.996;5.180;2022-10-18T18:26:26;17.50;62.30
70456;DHT22;57916;51.996;5.180;2022-10-18T18:29:16;17.40;62.40
70456;DHT22;57916;51.996;5.180;2022-10-18T18:32:00;17.40;62.50
70456;DHT22;57916;51.996;5.180;2022-10-18T18:34:28;17.30;62.60
70456;DHT22;57916;51.996;5.180;2022-10-18T18:36:55;17.30;62.50
70456;DHT22;57916;51.996;5.180;2022-10-18T18:39:24;17.30;62.50
70456;DHT22;57916;51.996;5.180;2022-10-18T18:41:54;17.20;62.60
70456;DHT22;57916;51.996;5.180;2022-10-18T18:44:22;17.20;62.60
70456;DHT22;57916;51.996;5.180;2022-10-18T18:46:50;17.10;62.80
70456;DHT22;57916;51.996;5.180;2022-10-18T18:49:17;17.10;62.90
70456;DHT22;57916;51.996;5.180;2022-10-18T18:51:44;17.10;62.90
70456;DHT22;57916;51.996;5.180;2022-10-18T18:54:13;17.10;62.80
70456;DHT22;57916;51.996;5.180;2022-10-18T18:56:41;17.00;62.70
70456;DHT22;57916;51.996;5.180;2022-10-18T18:59:12;17.00;62.90
70456;DHT22;57916;51.996;5.180;2022-10-18T19:01:40;17.00;62.60
70456;DHT22;57916;51.996;5.180;2022-10-18T19:04:08;16.90;62.60
70456;DHT22;57916;51.996;5.180;2022-10-18T19:06:39;16.90;62.60
70456;DHT22;57916;51.996;5.180;2022-10-18T19:09:12;16.80;62.70
70456;DHT22;57916;51.996;5.180;2022-10-18T19:11:46;16.80;63.00
70456;DHT22;57916;51.996;5.180;2022-10-18T19:14:14;16.80;62.80
70456;DHT22;57916;51.996;5.180;2022-10-18T19:16:49;16.70;62.80
70456;DHT22;57916;51.996;5.180;2022-10-18T19:19:18;16.70;63.00
70456;DHT22;57916;51.996;5.180;2022-10-18T19:21:54;16.70;63.30
70456;DHT22;57916;51.996;5.180;2022-10-18T19:24:23;16.60;63.50
70456;DHT22;57916;51.996;5.180;2022-10-18T19:26:55;16.60;63.40
70456;DHT22;57916;51.996;5.180;2022-10-18T19:31:53;16.50;62.60
70456;DHT22;57916;51.996;5.180;2022-10-18T19:34:21;16.50;62.70
70456;DHT22;57916;51.996;5.180;2022-10-18T19:36:50;16.50;62.70
70456;DHT22;57916;51.996;5.180;2022-10-18T19:39:31;16.40;62.90
70456;DHT22;57916;51.996;5.180;2022-10-18T19:42:00;16.40;62.70
70456;DHT22;57916;51.996;5.180;2022-10-18T19:44:32;16.30;63.00
70456;DHT22;57916;51.996;5.180;2022-10-18T19:47:01;16.30;62.90
70456;DHT22;57916;51.996;5.180;2022-10-18T19:49:28;16.30;63.00
70456;DHT22;57916;51.996;5.180;2022-10-18T19:51:56;16.20;62.90
70456;DHT22;57916;51.996;5.180;2022-10-18T19:54:24;16.20;63.10
70456;DHT22;57916;51.996;5.180;2022-10-18T19:56:51;16.20;63.30
70456;DHT22;57916;51.996;5.180;2022-10-18T19:59:18;16.10;63.50
70456;DHT22;57916;51.996;5.180;2022-10-18T20:01:45;16.10;63.50
70456;DHT22;57916;51.996;5.180;2022-10-18T20:04:13;16.10;63.70
70456;DHT22;57916;51.996;5.180;2022-10-18T20:06:41;16.10;64.00
70456;DHT22;57916;51.996;5.180;2022-10-18T20:09:10;16.00;63.90
70456;DHT22;57916;51.996;5.180;2022-10-18T20:11:42;16.00;64.20
70456;DHT22;57916;51.996;5.180;2022-10-18T20:14:09;16.00;64.40
70456;DHT22;57916;51.996;5.180;2022-10-18T20:16:36;16.00;64.20
70456;DHT22;57916;51.996;5.180;2022-10-18T20:19:05;16.00;64.10
70456;DHT22;57916;51.996;5.180;2022-10-18T20:21:33;16.00;64.20
70456;DHT22;57916;51.996;5.180;2022-10-18T20:24:03;16.00;64.10
70456;DHT22;57916;51.996;5.180;2022-10-18T20:26:30;15.90;64.00
70456;DHT22;57916;51.996;5.180;2022-10-18T20:28:57;15.90;63.70
70456;DHT22;57916;51.996;5.180;2022-10-18T20:31:30;15.90;63.70